Terminal Aerodrome Forecast
Issued by NWS

Home | Current Version | Previous Version | Text Only | Print | Product List | Glossary On
Versions: 1 2 3 4 5 6 7 8 9 10 11 12 13 14 15 16 17 18 19 20 21 22 23 24 25 26 27 28 29 30 31 32 33 34 35 36 37 38 39 40 41 42
000
FTAK31 PANC 030743 AAB
TAFADL
TAF AMD
PADL 030743Z 0308/0406 08010KT 4SM -SHRA BR SCT005 OVC015
      WS020/14035KT
      TEMPO 0308/0312 2SM -SHRA BR BKN005
     FM031200 17011KT 2SM -SHRA BR OVC008
     FM032100 17009KT 3SM BR OVC006
      AMD LTD TO CLD VIS AND WIND 0307/0316=

USA.gov is the U.S. government's official web portal to all federal, state and local government web resources and services.